createdAt,value
2023-04-30T00:01:33.696Z,8.21
2023-04-30T00:05:37.308Z,8.16
2023-04-30T00:09:40.145Z,8.09
2023-04-30T00:13:43.444Z,8.04
2023-04-30T00:17:47.514Z,7.98
2023-04-30T00:21:50.332Z,7.97
2023-04-30T00:25:52.998Z,7.93
2023-04-30T00:29:55.954Z,7.90
2023-04-30T00:34:00.337Z,7.89
2023-04-30T00:38:03.035Z,7.87
2023-04-30T00:42:06.014Z,7.85
2023-04-30T00:46:08.759Z,7.80
2023-04-30T00:50:15.731Z,7.78
2023-04-30T00:54:21.188Z,7.74
2023-04-30T00:58:24.124Z,7.71
2023-04-30T01:02:26.959Z,7.68
2023-04-30T01:06:31.517Z,7.65
2023-04-30T01:10:42.208Z,7.60
2023-04-30T01:14:55.940Z,7.51
2023-04-30T01:19:03.285Z,7.42
2023-04-30T01:23:29.409Z,7.30
2023-04-30T01:27:41.384Z,7.15
2023-04-30T01:31:46.225Z,6.97
2023-04-30T01:36:08.732Z,6.90
2023-04-30T01:40:25.147Z,6.84
2023-04-30T01:44:44.100Z,6.82
2023-04-30T01:48:55.914Z,6.83
2023-04-30T01:53:01.914Z,6.86
2023-04-30T01:57:07.539Z,6.90
2023-04-30T02:01:27.065Z,6.93
2023-04-30T02:05:31.175Z,6.95
2023-04-30T02:09:33.904Z,6.95
2023-04-30T02:13:36.704Z,6.94
2023-04-30T02:17:39.712Z,6.94
2023-04-30T02:21:43.798Z,6.95
2023-04-30T02:25:46.450Z,6.94
2023-04-30T02:29:49.420Z,6.93
2023-04-30T02:33:52.096Z,6.89
2023-04-30T02:37:56.106Z,6.84
2023-04-30T02:41:58.771Z,6.82
2023-04-30T02:46:01.466Z,6.78
2023-04-30T02:50:04.230Z,6.72
2023-04-30T02:54:08.620Z,6.66
2023-04-30T02:58:13.466Z,6.59
2023-04-30T03:02:16.709Z,6.57
2023-04-30T03:06:19.795Z,6.57
2023-04-30T03:10:23.943Z,6.56
2023-04-30T03:14:27.146Z,6.52
2023-04-30T03:18:30.156Z,6.48
2023-04-30T03:22:32.944Z,6.47
2023-04-30T03:26:37.038Z,6.42
2023-04-30T03:30:39.822Z,6.40
2023-04-30T03:34:42.506Z,6.37
2023-04-30T03:38:45.303Z,6.27
2023-04-30T03:42:51.404Z,6.21
2023-04-30T03:46:54.372Z,6.14
2023-04-30T03:50:57.414Z,6.07
2023-04-30T03:55:00.185Z,6.01
2023-04-30T03:59:04.545Z,5.99
2023-04-30T04:03:08.376Z,6.00
2023-04-30T04:07:11.445Z,6.00
2023-04-30T04:11:14.242Z,5.98
2023-04-30T04:15:18.335Z,5.99
2023-04-30T04:19:22.311Z,5.97
2023-04-30T04:23:25.078Z,5.95
2023-04-30T04:27:27.840Z,5.93
2023-04-30T04:31:32.561Z,5.93
2023-04-30T04:35:35.704Z,5.92
2023-04-30T04:39:38.466Z,5.94
2023-04-30T04:43:42.440Z,5.96
2023-04-30T04:47:46.740Z,5.96
2023-04-30T04:51:49.792Z,6.00
2023-04-30T04:55:52.449Z,6.03
2023-04-30T04:59:55.566Z,6.05
2023-04-30T05:03:59.989Z,6.10
2023-04-30T05:08:02.985Z,6.18
2023-04-30T05:12:06.881Z,6.26
2023-04-30T05:16:09.619Z,6.36
2023-04-30T05:20:14.371Z,6.52
2023-04-30T05:24:17.698Z,6.65
2023-04-30T05:28:20.477Z,6.77
2023-04-30T05:32:23.905Z,6.92
2023-04-30T05:36:28.458Z,7.06
2023-04-30T05:40:31.547Z,7.21
2023-04-30T05:44:34.230Z,7.32
2023-04-30T05:48:36.909Z,7.46
2023-04-30T05:52:41.062Z,7.59
2023-04-30T05:56:43.908Z,7.77
2023-04-30T06:00:50.082Z,7.96
2023-04-30T06:04:52.968Z,8.10
2023-04-30T06:08:57.018Z,8.34
2023-04-30T06:12:59.825Z,8.55
2023-04-30T06:17:03.322Z,8.89
2023-04-30T06:21:06.091Z,9.53
2023-04-30T06:25:10.994Z,10.07
2023-04-30T06:29:13.680Z,10.55
2023-04-30T06:33:16.304Z,10.98
2023-04-30T06:37:19.312Z,11.48
2023-04-30T06:41:23.414Z,12.02
2023-04-30T06:45:26.170Z,12.43
2023-04-30T06:49:28.794Z,12.90
2023-04-30T06:53:31.475Z,13.31
2023-04-30T06:57:37.370Z,13.37
2023-04-30T07:01:40.260Z,13.60
2023-04-30T07:05:43.052Z,13.41
2023-04-30T07:09:45.923Z,13.71
2023-04-30T07:13:50.448Z,14.01
2023-04-30T07:17:53.264Z,14.02
2023-04-30T07:21:56.013Z,14.05
2023-04-30T07:25:58.711Z,14.20
2023-04-30T07:30:02.777Z,14.43
2023-04-30T07:34:05.466Z,14.68
2023-04-30T07:38:08.315Z,15.07
2023-04-30T07:42:11.016Z,15.46
2023-04-30T07:46:15.048Z,15.51
2023-04-30T07:50:18.582Z,15.67
2023-04-30T07:54:21.246Z,15.62
2023-04-30T07:58:23.936Z,15.75
2023-04-30T08:02:28.564Z,15.98
2023-04-30T08:06:31.743Z,16.48
2023-04-30T08:10:35.074Z,16.77
2023-04-30T08:14:37.784Z,17.09
2023-04-30T08:18:44.729Z,17.32
2023-04-30T08:22:47.602Z,17.51
2023-04-30T08:26:50.461Z,17.45
2023-04-30T08:30:53.606Z,17.65
2023-04-30T08:34:57.756Z,17.68
2023-04-30T08:39:01.982Z,17.75
2023-04-30T08:43:07.352Z,17.93
2023-04-30T08:47:13.119Z,18.26
2023-04-30T08:51:17.182Z,18.41
2023-04-30T08:55:19.928Z,18.41
2023-04-30T08:59:22.767Z,18.46
2023-04-30T09:03:25.680Z,18.57
2023-04-30T09:07:34.584Z,18.88
2023-04-30T09:11:37.270Z,19.02
2023-04-30T09:15:41.756Z,19.30
2023-04-30T09:19:44.745Z,19.42
2023-04-30T09:23:59.472Z,19.53
2023-04-30T09:28:09.170Z,19.84
2023-04-30T09:32:11.911Z,19.85
2023-04-30T09:36:16.821Z,20.04
2023-04-30T09:40:33.152Z,20.15
2023-04-30T09:44:39.128Z,20.11
2023-04-30T09:48:42.547Z,20.42
2023-04-30T09:52:52.919Z,20.44
2023-04-30T09:56:58.959Z,20.52
2023-04-30T10:01:06.531Z,20.53
2023-04-30T10:05:10.718Z,20.35
2023-04-30T10:09:15.983Z,20.48
2023-04-30T10:13:22.776Z,20.72
2023-04-30T10:17:28.859Z,20.64
2023-04-30T10:21:33.875Z,20.94
2023-04-30T10:25:38.357Z,21.10
2023-04-30T10:29:43.623Z,20.87
2023-04-30T10:33:54.757Z,20.72
2023-04-30T10:38:05.506Z,20.78
2023-04-30T10:42:11.622Z,20.90
2023-04-30T10:46:23.266Z,20.76
2023-04-30T10:50:26.091Z,20.61
2023-04-30T10:54:29.847Z,20.91
2023-04-30T10:58:34.508Z,21.13
2023-04-30T11:02:42.568Z,21.33
2023-04-30T11:06:56.978Z,21.20
2023-04-30T11:11:01.580Z,21.10
2023-04-30T11:15:08.814Z,21.27
2023-04-30T11:19:15.046Z,21.15
2023-04-30T11:23:25.199Z,21.17
2023-04-30T11:27:36.428Z,21.41
2023-04-30T11:31:39.484Z,21.35
2023-04-30T11:35:44.189Z,21.48
2023-04-30T11:39:47.943Z,21.72
2023-04-30T11:43:50.658Z,21.76
2023-04-30T11:47:55.907Z,22.07
2023-04-30T11:51:59.908Z,21.72
2023-04-30T11:56:06.348Z,21.41
2023-04-30T12:00:15.211Z,21.50
2023-04-30T12:04:19.168Z,21.79
2023-04-30T12:08:23.484Z,22.14
2023-04-30T12:12:29.753Z,21.97
2023-04-30T12:16:41.452Z,21.98
2023-04-30T12:20:44.613Z,22.22
2023-04-30T12:24:48.612Z,22.17
2023-04-30T12:28:52.577Z,22.19
2023-04-30T12:32:58.897Z,22.35
2023-04-30T12:37:03.046Z,21.94
2023-04-30T12:41:07.141Z,21.86
2023-04-30T12:45:11.139Z,22.00
2023-04-30T12:49:14.341Z,22.00
2023-04-30T12:53:17.080Z,22.17
2023-04-30T12:57:22.150Z,21.85
2023-04-30T13:01:25.722Z,21.89
2023-04-30T13:05:28.530Z,22.23
2023-04-30T13:09:31.366Z,22.42
2023-04-30T13:13:35.361Z,22.28
2023-04-30T13:17:39.430Z,22.28
2023-04-30T13:21:42.323Z,22.36
2023-04-30T13:25:44.996Z,22.53
2023-04-30T13:29:49.089Z,22.38
2023-04-30T13:33:51.975Z,22.26
2023-04-30T13:37:55.120Z,22.06
2023-04-30T13:41:57.770Z,21.86
2023-04-30T13:46:01.979Z,21.59
2023-04-30T13:50:05.439Z,21.59
2023-04-30T13:54:08.115Z,21.69
2023-04-30T13:58:10.805Z,21.61
2023-04-30T14:02:14.785Z,21.31
2023-04-30T14:06:17.959Z,21.23
2023-04-30T14:10:20.700Z,20.93
2023-04-30T14:14:29.704Z,20.91
2023-04-30T14:18:34.205Z,21.16
2023-04-30T14:22:38.381Z,21.37
2023-04-30T14:26:43.412Z,21.19
2023-04-30T14:30:47.890Z,21.04
2023-04-30T14:34:51.991Z,20.95
2023-04-30T14:38:54.917Z,20.98
2023-04-30T14:42:58.001Z,21.26
2023-04-30T14:47:01.411Z,21.23
2023-04-30T14:51:05.625Z,21.33
2023-04-30T14:55:09.094Z,21.19
2023-04-30T14:59:11.793Z,20.98
2023-04-30T15:03:14.652Z,20.84
2023-04-30T15:07:19.600Z,21.03
2023-04-30T15:11:24.056Z,21.06
2023-04-30T15:15:28.962Z,21.02
2023-04-30T15:19:31.684Z,20.93
2023-04-30T15:23:35.814Z,20.69
2023-04-30T15:27:39.043Z,20.35
2023-04-30T15:31:42.023Z,20.19
2023-04-30T15:35:44.740Z,20.19
2023-04-30T15:39:50.001Z,20.30
2023-04-30T15:43:52.732Z,20.13
2023-04-30T15:47:55.499Z,20.13
2023-04-30T15:51:58.474Z,20.01
2023-04-30T15:56:04.297Z,19.83
2023-04-30T16:00:10.707Z,19.47
2023-04-30T16:04:16.300Z,19.27
2023-04-30T16:08:19.109Z,19.20
2023-04-30T16:12:23.146Z,19.10
2023-04-30T16:16:27.820Z,19.16
2023-04-30T16:20:32.030Z,19.20
2023-04-30T16:24:34.713Z,19.19
2023-04-30T16:28:38.710Z,19.20
2023-04-30T16:32:41.397Z,19.18
2023-04-30T16:36:44.118Z,18.98
2023-04-30T16:40:46.845Z,18.86
2023-04-30T16:44:52.172Z,18.90
2023-04-30T16:48:54.868Z,19.00
2023-04-30T16:53:07.424Z,19.02
2023-04-30T16:57:25.860Z,19.14
2023-04-30T17:01:32.042Z,19.53
2023-04-30T17:05:37.054Z,19.69
2023-04-30T17:09:46.246Z,19.47
2023-04-30T17:13:50.426Z,19.17
2023-04-30T17:18:15.062Z,18.92
2023-04-30T17:22:34.279Z,18.70
2023-04-30T17:26:53.242Z,18.52
2023-04-30T17:31:13.637Z,18.24
2023-04-30T17:35:36.325Z,18.16
2023-04-30T17:39:56.141Z,18.19
2023-04-30T17:44:16.965Z,18.06
2023-04-30T17:48:36.365Z,17.86
2023-04-30T17:52:58.846Z,17.76
2023-04-30T17:57:19.762Z,17.65
2023-04-30T18:01:32.061Z,17.30
2023-04-30T18:05:48.494Z,17.17
2023-04-30T18:10:04.187Z,17.07
2023-04-30T18:14:23.774Z,16.94
2023-04-30T18:18:42.716Z,16.83
2023-04-30T18:23:00.797Z,16.69
2023-04-30T18:27:22.066Z,16.57
2023-04-30T18:31:40.605Z,16.45
2023-04-30T18:36:05.362Z,16.26
2023-04-30T18:40:22.731Z,16.23
2023-04-30T18:44:43.452Z,16.11
2023-04-30T18:48:52.119Z,16.06
2023-04-30T18:52:54.953Z,15.98
2023-04-30T18:57:16.315Z,15.91
2023-04-30T19:01:33.924Z,15.78
2023-04-30T19:05:55.476Z,15.68
2023-04-30T19:10:10.062Z,15.59
2023-04-30T19:14:29.400Z,15.50
2023-04-30T19:19:00.498Z,15.38
2023-04-30T19:23:19.314Z,15.27
2023-04-30T19:27:37.799Z,15.17
2023-04-30T19:31:51.490Z,15.06
2023-04-30T19:35:57.577Z,14.96
2023-04-30T19:40:00.785Z,14.87
2023-04-30T19:44:04.810Z,14.79
2023-04-30T19:48:13.257Z,14.68
2023-04-30T19:52:17.242Z,14.58
2023-04-30T19:56:33.988Z,14.48
2023-04-30T20:00:52.345Z,14.37
2023-04-30T20:05:10.076Z,14.28
2023-04-30T20:09:29.928Z,14.17
2023-04-30T20:13:49.554Z,14.09
2023-04-30T20:18:11.214Z,14.00
2023-04-30T20:22:29.841Z,13.90
2023-04-30T20:26:44.903Z,13.78
2023-04-30T20:30:53.525Z,13.70
2023-04-30T20:35:00.449Z,13.57
2023-04-30T20:39:04.127Z,13.50
2023-04-30T20:43:09.394Z,13.38
2023-04-30T20:47:14.278Z,13.31
2023-04-30T20:51:17.410Z,13.28
2023-04-30T20:55:21.196Z,13.17
2023-04-30T20:59:25.347Z,13.06
2023-04-30T21:03:36.930Z,12.98
2023-04-30T21:07:50.217Z,12.90
2023-04-30T21:12:06.510Z,12.81
2023-04-30T21:16:16.568Z,12.79
2023-04-30T21:20:19.551Z,12.75
2023-04-30T21:24:22.512Z,12.69
2023-04-30T21:28:25.466Z,12.61
2023-04-30T21:32:29.566Z,12.58
2023-04-30T21:36:35.096Z,12.49
2023-04-30T21:40:37.872Z,12.46
2023-04-30T21:44:41.014Z,12.41
2023-04-30T21:48:46.989Z,12.42
2023-04-30T21:52:50.789Z,12.39
2023-04-30T21:56:54.177Z,12.37
2023-04-30T22:00:58.952Z,12.35
2023-04-30T22:05:08.743Z,12.32
2023-04-30T22:09:12.311Z,12.28
2023-04-30T22:13:15.061Z,12.26
2023-04-30T22:17:18.322Z,12.20
2023-04-30T22:21:22.669Z,12.17
2023-04-30T22:25:25.828Z,12.11
2023-04-30T22:29:28.509Z,12.06
2023-04-30T22:33:35.782Z,12.02
2023-04-30T22:37:40.219Z,11.98
2023-04-30T22:41:46.388Z,11.93
2023-04-30T22:45:50.056Z,11.88
2023-04-30T22:49:55.880Z,11.84
2023-04-30T22:54:03.395Z,11.77
2023-04-30T22:58:07.122Z,11.72
2023-04-30T23:02:15.439Z,11.68
2023-04-30T23:06:19.831Z,11.63
2023-04-30T23:10:24.227Z,11.57
2023-04-30T23:14:27.015Z,11.52
2023-04-30T23:18:31.410Z,11.47
2023-04-30T23:22:34.240Z,11.43
2023-04-30T23:26:38.960Z,11.36
2023-04-30T23:30:42.173Z,11.32
2023-04-30T23:34:45.343Z,11.24
2023-04-30T23:38:51.584Z,11.15
2023-04-30T23:43:02.894Z,11.10
2023-04-30T23:47:06.580Z,11.07
2023-04-30T23:51:11.714Z,11.03
2023-04-30T23:55:29.262Z,10.97
2023-04-30T23:59:33.582Z,10.91
